Time;durP1;ratioP1;P1;durP2;ratioP2;P2;SDS_P1;SDS_P2;PMS_P1;PMS_P2;Temp;Humidity;BMP_temperature;BMP_pressure;BME280_temperature;BME280_humidity;BME280_pressure;Samples;Min_cycle;Max_cycle;Signal;HPM_P1;HPM_P2
2022/08/04 00:00:57;;;;;;;;;;;27.60;40.70;;;;;;1560186;74;1879;-59
2022/08/04 00:03:01;;;;;;;;;;;27.60;41.00;;;;;;1555319;74;1854;-61
2022/08/04 00:05:04;;;;;;;;;;;27.50;41.00;;;;;;1553085;75;787;-59
2022/08/04 00:07:10;;;;;;;;;;;27.60;41.10;;;;;;1553602;75;1945;-61
2022/08/04 00:09:23;;;;;;;;;;;27.50;41.00;;;;;;1556821;74;1567;-59
2022/08/04 00:11:25;;;;;;;;;;;27.60;41.00;;;;;;1558088;75;1925;-58
2022/08/04 00:13:28;;;;;;;;;;;27.60;40.90;;;;;;1558213;75;1251;-59
2022/08/04 00:15:31;;;;;;;;;;;27.60;40.90;;;;;;1559652;74;666;-60
2022/08/04 00:17:34;;;;;;;;;;;27.50;41.00;;;;;;1543134;75;699;-59
2022/08/04 00:19:38;;;;;;;;;;;27.60;40.90;;;;;;1555939;74;1819;-58
2022/08/04 00:21:42;;;;;;;;;;;27.50;40.90;;;;;;1559731;74;1353;-59
2022/08/04 00:23:44;;;;;;;;;;;27.50;40.90;;;;;;1552912;75;1117;-59
2022/08/04 00:25:46;;;;;;;;;;;27.60;40.90;;;;;;1554376;75;1928;-59
2022/08/04 00:27:48;;;;;;;;;;;27.60;40.80;;;;;;1561113;75;704;-61
2022/08/04 00:29:50;;;;;;;;;;;27.60;40.90;;;;;;1563054;74;851;-61
2022/08/04 00:31:51;;;;;;;;;;;27.50;40.80;;;;;;1551011;75;755;-59
2022/08/04 00:33:53;;;;;;;;;;;27.50;40.80;;;;;;1558419;75;1539;-59
2022/08/04 00:35:55;;;;;;;;;;;27.50;40.90;;;;;;1552276;75;718;-61
2022/08/04 00:37:57;;;;;;;;;;;27.60;40.90;;;;;;1559653;74;756;-60
2022/08/04 00:39:59;;;;;;;;;;;27.60;40.90;;;;;;1551990;75;729;-59
2022/08/04 00:42:08;;;;;;;;;;;27.50;41.00;;;;;;1554561;75;1074;-59
2022/08/04 00:44:28;;;;;;;;;;;27.50;40.90;;;;;;1559058;74;738;-61
2022/08/04 00:46:35;;;;;;;;;;;27.50;41.00;;;;;;1554236;75;1938;-61
2022/08/04 00:48:44;;;;;;;;;;;27.60;41.00;;;;;;1557655;75;1468;-59
2022/08/04 00:50:53;;;;;;;;;;;27.50;40.70;;;;;;1543021;75;1851;-58
2022/08/04 00:53:06;;;;;;;;;;;27.50;40.70;;;;;;1544771;75;1787;-59
2022/08/04 00:55:09;;;;;;;;;;;27.50;40.70;;;;;;1558403;75;687;-59
2022/08/04 00:57:28;;;;;;;;;;;27.50;40.60;;;;;;1561314;75;717;-61
2022/08/04 00:59:48;;;;;;;;;;;27.50;40.70;;;;;;1562670;74;698;-61
2022/08/04 01:01:55;;;;;;;;;;;27.50;40.70;;;;;;1548300;74;701;-60
2022/08/04 01:03:58;;;;;;;;;;;27.40;40.70;;;;;;1544959;75;1714;-60
2022/08/04 01:06:02;;;;;;;;;;;27.50;40.70;;;;;;1563847;75;1926;-60
2022/08/04 01:08:11;;;;;;;;;;;27.50;40.70;;;;;;1572251;74;702;-60
2022/08/04 01:10:21;;;;;;;;;;;27.50;40.70;;;;;;1545788;74;700;-60
2022/08/04 01:12:33;;;;;;;;;;;27.50;40.70;;;;;;1538196;74;1104;-60
2022/08/04 01:14:46;;;;;;;;;;;27.50;40.70;;;;;;1555830;74;1870;-61
2022/08/04 01:16:49;;;;;;;;;;;27.50;40.70;;;;;;1554462;75;1793;-60
2022/08/04 01:18:52;;;;;;;;;;;27.50;40.70;;;;;;1555817;75;693;-60
2022/08/04 01:20:59;;;;;;;;;;;27.50;41.00;;;;;;1554976;75;683;-60
2022/08/04 01:23:02;;;;;;;;;;;27.50;41.00;;;;;;1552871;74;1802;-59
2022/08/04 01:25:09;;;;;;;;;;;27.50;41.00;;;;;;1542697;74;755;-59
2022/08/04 01:27:26;;;;;;;;;;;27.50;41.00;;;;;;1546839;73;2124;-56
2022/08/04 01:29:30;;;;;;;;;;;27.40;41.10;;;;;;1634743;71;699;-60
2022/08/04 01:31:33;;;;;;;;;;;27.50;41.20;;;;;;1647666;71;1874;-60
2022/08/04 01:33:35;;;;;;;;;;;27.50;41.10;;;;;;1640958;71;1177;-58
2022/08/04 01:35:42;;;;;;;;;;;27.50;41.20;;;;;;1636087;71;756;-56
2022/08/04 01:37:49;;;;;;;;;;;27.40;41.10;;;;;;1640489;72;734;-58
2022/08/04 01:39:52;;;;;;;;;;;27.40;41.10;;;;;;1633883;71;831;-59
2022/08/04 01:41:55;;;;;;;;;;;27.40;41.20;;;;;;1642147;71;2084;-60
2022/08/04 01:43:57;;;;;;;;;;;27.50;41.00;;;;;;1636133;71;1066;-58
2022/08/04 01:45:59;;;;;;;;;;;27.50;41.10;;;;;;1643801;71;1942;-59
2022/08/04 01:48:01;;;;;;;;;;;27.40;41.20;;;;;;1640785;71;678;-60
2022/08/04 01:50:05;;;;;;;;;;;27.40;41.20;;;;;;1636223;71;675;-59
2022/08/04 01:52:09;;;;;;;;;;;27.50;41.20;;;;;;1641112;71;1145;-56
2022/08/04 01:54:11;;;;;;;;;;;27.40;41.10;;;;;;1633826;71;1149;-57
2022/08/04 01:56:13;;;;;;;;;;;27.40;41.20;;;;;;1640142;71;713;-57
2022/08/04 01:58:16;;;;;;;;;;;27.40;41.20;;;;;;1633187;71;1593;-59
2022/08/04 02:00:23;;;;;;;;;;;27.50;41.20;;;;;;1640555;71;657;-55
2022/08/04 02:02:25;;;;;;;;;;;27.50;41.20;;;;;;1636702;71;1129;-55
2022/08/04 02:04:26;;;;;;;;;;;27.50;41.20;;;;;;1642318;71;662;-60
2022/08/04 02:06:30;;;;;;;;;;;27.50;41.30;;;;;;1627842;71;1928;-60
2022/08/04 02:08:34;;;;;;;;;;;27.40;41.30;;;;;;1640686;71;657;-58
2022/08/04 02:10:43;;;;;;;;;;;27.50;41.30;;;;;;1640655;71;701;-58
2022/08/04 02:13:03;;;;;;;;;;;27.50;41.10;;;;;;1639779;71;1561;-60
2022/08/04 02:15:18;;;;;;;;;;;27.50;41.10;;;;;;1629387;71;785;-60
2022/08/04 02:17:31;;;;;;;;;;;27.40;41.10;;;;;;1628396;71;2029;-56
2022/08/04 02:19:35;;;;;;;;;;;27.40;41.10;;;;;;1636085;71;687;-59
2022/08/04 02:21:36;;;;;;;;;;;27.40;41.10;;;;;;1642055;71;686;-59
2022/08/04 02:23:43;;;;;;;;;;;27.50;41.10;;;;;;1634286;71;1069;-59
2022/08/04 02:25:44;;;;;;;;;;;27.50;41.10;;;;;;1634765;71;1181;-58
2022/08/04 02:27:56;;;;;;;;;;;27.50;41.10;;;;;;1639094;71;1943;-60
2022/08/04 02:30:02;;;;;;;;;;;27.50;41.20;;;;;;1631442;71;724;-58
2022/08/04 02:32:05;;;;;;;;;;;27.50;41.20;;;;;;1632039;71;1117;-58
2022/08/04 02:34:14;;;;;;;;;;;27.40;41.20;;;;;;1638098;72;726;-59
2022/08/04 02:36:18;;;;;;;;;;;27.50;41.20;;;;;;1637443;71;1965;-58
2022/08/04 02:38:37;;;;;;;;;;;27.40;41.20;;;;;;1637408;71;1092;-56
2022/08/04 02:40:39;;;;;;;;;;;27.50;41.20;;;;;;1636973;71;1597;-58
2022/08/04 02:42:41;;;;;;;;;;;27.40;41.10;;;;;;1637427;71;1136;-59
2022/08/04 02:44:42;;;;;;;;;;;27.40;41.10;;;;;;1633655;71;748;-55
2022/08/04 02:46:44;;;;;;;;;;;27.50;41.20;;;;;;1630236;71;1948;-57
2022/08/04 02:48:46;;;;;;;;;;;27.40;41.10;;;;;;1639936;71;706;-60
2022/08/04 02:50:48;;;;;;;;;;;27.40;41.10;;;;;;1639637;71;728;-58
2022/08/04 02:52:50;;;;;;;;;;;27.40;41.10;;;;;;1633717;72;1129;-61
2022/08/04 02:54:53;;;;;;;;;;;27.40;41.10;;;;;;1629448;71;1310;-60
2022/08/04 02:56:55;;;;;;;;;;;27.40;41.10;;;;;;1633842;71;677;-58
2022/08/04 02:59:01;;;;;;;;;;;27.40;41.10;;;;;;1634637;71;627;-61
2022/08/04 03:01:03;;;;;;;;;;;27.40;41.00;;;;;;1629954;71;642;-59
2022/08/04 03:03:07;;;;;;;;;;;27.40;41.10;;;;;;1629074;71;1072;-54
2022/08/04 03:05:10;;;;;;;;;;;27.40;41.10;;;;;;1627530;71;759;-58
2022/08/04 03:07:14;;;;;;;;;;;27.40;41.10;;;;;;1628262;71;1920;-60
2022/08/04 03:09:34;;;;;;;;;;;27.40;41.10;;;;;;1635478;71;1972;-60
2022/08/04 03:11:49;;;;;;;;;;;27.40;41.20;;;;;;1633955;71;742;-56
2022/08/04 03:14:09;;;;;;;;;;;27.40;41.10;;;;;;1635606;71;1936;-56
2022/08/04 03:16:25;;;;;;;;;;;27.40;41.30;;;;;;1637883;71;705;-57
2022/08/04 03:18:34;;;;;;;;;;;27.40;41.20;;;;;;1635995;71;733;-59
2022/08/04 03:20:41;;;;;;;;;;;27.40;41.10;;;;;;1631062;71;768;-61
2022/08/04 03:22:53;;;;;;;;;;;27.40;41.20;;;;;;1639368;71;1557;-60
2022/08/04 03:25:03;;;;;;;;;;;27.40;41.20;;;;;;1633885;71;652;-55
2022/08/04 03:27:23;;;;;;;;;;;27.40;41.20;;;;;;1638074;71;1935;-58
2022/08/04 03:29:43;;;;;;;;;;;27.30;41.20;;;;;;1629541;72;702;-60
2022/08/04 03:31:47;;;;;;;;;;;27.40;41.30;;;;;;1624213;71;652;-60
2022/08/04 03:33:50;;;;;;;;;;;27.40;41.20;;;;;;1628871;71;1138;-59
2022/08/04 03:35:57;;;;;;;;;;;27.40;41.20;;;;;;1629215;71;767;-56
2022/08/04 03:38:15;;;;;;;;;;;27.40;41.30;;;;;;1631157;71;1507;-57
2022/08/04 03:40:35;;;;;;;;;;;27.40;41.20;;;;;;1633897;71;723;-57
2022/08/04 03:42:39;;;;;;;;;;;27.40;41.20;;;;;;1633066;71;1137;-58
2022/08/04 03:44:42;;;;;;;;;;;27.40;41.20;;;;;;1632999;71;1820;-60
2022/08/04 03:46:52;;;;;;;;;;;27.40;41.20;;;;;;1626342;71;1954;-59
2022/08/04 03:49:08;;;;;;;;;;;27.40;41.30;;;;;;1632996;71;770;-58
2022/08/04 03:53:41;;;;;;;;;;;27.30;41.20;;;;;;1629477;71;1126;-60
2022/08/04 03:55:48;;;;;;;;;;;27.40;41.20;;;;;;1629280;71;2141;-60
2022/08/04 03:58:08;;;;;;;;;;;27.30;41.20;;;;;;1624453;71;1931;-58
2022/08/04 04:00:17;;;;;;;;;;;27.30;41.20;;;;;;1627597;71;711;-58
2022/08/04 04:02:23;;;;;;;;;;;27.30;41.30;;;;;;1623075;71;1193;-59
2022/08/04 04:04:43;;;;;;;;;;;27.40;41.30;;;;;;1627456;72;1560;-58
2022/08/04 04:06:47;;;;;;;;;;;27.30;41.30;;;;;;1624629;71;1952;-56
2022/08/04 04:09:06;;;;;;;;;;;27.40;41.20;;;;;;1626154;72;1920;-57
2022/08/04 04:11:13;;;;;;;;;;;27.30;41.30;;;;;;1626453;71;643;-61
2022/08/04 04:13:22;;;;;;;;;;;27.30;41.30;;;;;;1624012;72;1145;-60
2022/08/04 04:15:35;;;;;;;;;;;27.40;41.30;;;;;;1628483;71;699;-59
2022/08/04 04:17:45;;;;;;;;;;;27.40;41.30;;;;;;1620537;72;1351;-60
2022/08/04 04:20:01;;;;;;;;;;;27.40;41.30;;;;;;1624670;72;1435;-59
2022/08/04 04:22:05;;;;;;;;;;;27.40;41.30;;;;;;1622966;71;1464;-56
2022/08/04 04:24:24;;;;;;;;;;;27.30;41.30;;;;;;1623933;71;1964;-58
2022/08/04 04:26:44;;;;;;;;;;;27.40;41.30;;;;;;1623862;71;1870;-59
2022/08/04 04:28:50;;;;;;;;;;;27.30;41.30;;;;;;1630223;71;969;-57
2022/08/04 04:30:54;;;;;;;;;;;27.30;41.30;;;;;;1605752;71;1803;-58
2022/08/04 04:33:09;;;;;;;;;;;27.40;41.40;;;;;;1630389;71;1571;-58
2022/08/04 04:35:21;;;;;;;;;;;27.40;41.40;;;;;;1581257;73;1103;-56
2022/08/04 04:37:41;;;;;;;;;;;27.40;41.50;;;;;;1614319;71;887;-56
2022/08/04 04:39:45;;;;;;;;;;;27.30;41.50;;;;;;1618297;71;684;-59
2022/08/04 04:41:52;;;;;;;;;;;27.30;41.50;;;;;;1623236;71;1856;-59
2022/08/04 04:44:04;;;;;;;;;;;27.40;41.50;;;;;;1619718;71;1691;-59
2022/08/04 04:46:10;;;;;;;;;;;27.30;41.50;;;;;;1616689;71;2121;-57
2022/08/04 04:48:14;;;;;;;;;;;27.40;41.50;;;;;;1620449;72;1922;-57
2022/08/04 04:50:29;;;;;;;;;;;27.40;41.60;;;;;;1613069;71;691;-58
2022/08/04 04:52:38;;;;;;;;;;;27.40;41.60;;;;;;1620866;71;1130;-55
2022/08/04 04:54:44;;;;;;;;;;;27.40;41.60;;;;;;1629498;71;672;-54
2022/08/04 04:56:54;;;;;;;;;;;27.40;41.60;;;;;;1626373;72;755;-55
2022/08/04 04:58:56;;;;;;;;;;;27.30;41.70;;;;;;1616783;72;1022;-59
2022/08/04 05:01:14;;;;;;;;;;;27.40;41.60;;;;;;1628574;71;682;-59
2022/08/04 05:03:18;;;;;;;;;;;27.30;41.70;;;;;;1625953;71;1138;-60
2022/08/04 05:05:30;;;;;;;;;;;27.40;41.70;;;;;;1631119;71;700;-59
2022/08/04 05:07:39;;;;;;;;;;;27.40;41.80;;;;;;1620194;71;1944;-59
2022/08/04 05:10:00;;;;;;;;;;;27.40;41.80;;;;;;1620935;71;1749;-55
2022/08/04 05:12:21;;;;;;;;;;;27.40;41.80;;;;;;1620039;71;1097;-58
2022/08/04 05:14:40;;;;;;;;;;;27.30;41.80;;;;;;1615114;71;1944;-58
2022/08/04 05:16:43;;;;;;;;;;;27.30;42.00;;;;;;1616211;71;1547;-56
2022/08/04 05:18:47;;;;;;;;;;;27.40;42.00;;;;;;1622383;71;1012;-57
2022/08/04 05:20:51;;;;;;;;;;;27.40;41.90;;;;;;1618482;71;720;-58
2022/08/04 05:22:57;;;;;;;;;;;27.40;41.90;;;;;;1626044;71;1114;-55
2022/08/04 05:25:00;;;;;;;;;;;27.40;41.90;;;;;;1621335;71;2114;-55
2022/08/04 05:27:03;;;;;;;;;;;27.40;41.80;;;;;;1618890;72;1932;-58
2022/08/04 05:29:07;;;;;;;;;;;27.40;41.90;;;;;;1614664;71;811;-58
2022/08/04 05:31:13;;;;;;;;;;;27.40;41.80;;;;;;1620598;71;1754;-59
2022/08/04 05:33:16;;;;;;;;;;;27.40;41.80;;;;;;1622227;71;1152;-59
2022/08/04 05:35:23;;;;;;;;;;;27.40;41.80;;;;;;1615584;71;653;-58
2022/08/04 05:37:24;;;;;;;;;;;27.50;41.80;;;;;;1618032;71;1537;-59
2022/08/04 05:39:28;;;;;;;;;;;27.50;41.80;;;;;;1620892;72;694;-55
2022/08/04 05:41:30;;;;;;;;;;;27.60;41.70;;;;;;1632071;71;1945;-55
2022/08/04 05:43:32;;;;;;;;;;;27.60;41.60;;;;;;1618725;71;1575;-56
2022/08/04 05:45:34;;;;;;;;;;;27.60;41.60;;;;;;1629322;71;735;-59
2022/08/04 05:47:36;;;;;;;;;;;27.60;41.60;;;;;;1638388;71;1923;-58
2022/08/04 05:49:39;;;;;;;;;;;27.60;41.60;;;;;;1636889;71;714;-58
2022/08/04 05:51:42;;;;;;;;;;;27.60;41.60;;;;;;1637193;71;696;-55
2022/08/04 05:53:45;;;;;;;;;;;27.60;41.60;;;;;;1638726;71;1121;-59
2022/08/04 05:55:47;;;;;;;;;;;27.60;41.70;;;;;;1637734;71;750;-57
2022/08/04 05:57:49;;;;;;;;;;;27.60;41.70;;;;;;1631980;71;1566;-57
2022/08/04 05:59:50;;;;;;;;;;;27.60;41.80;;;;;;1625168;71;576;-56
2022/08/04 06:01:55;;;;;;;;;;;27.60;41.70;;;;;;1622744;71;734;-58
2022/08/04 06:03:58;;;;;;;;;;;27.60;41.70;;;;;;1622557;71;1103;-58
2022/08/04 06:06:00;;;;;;;;;;;27.70;41.80;;;;;;1624959;71;717;-57
2022/08/04 06:08:02;;;;;;;;;;;27.70;41.80;;;;;;1625678;71;1949;-57
2022/08/04 06:10:05;;;;;;;;;;;27.80;41.70;;;;;;1627896;71;725;-58
2022/08/04 06:12:08;;;;;;;;;;;27.80;41.70;;;;;;1634729;71;1515;-59
2022/08/04 06:14:10;;;;;;;;;;;27.80;41.60;;;;;;1631799;71;685;-60
2022/08/04 06:16:13;;;;;;;;;;;27.70;41.60;;;;;;1637096;71;706;-61
2022/08/04 06:18:15;;;;;;;;;;;27.70;41.80;;;;;;1628661;71;702;-57
2022/08/04 06:20:16;;;;;;;;;;;27.60;41.90;;;;;;1638157;71;670;-59
2022/08/04 06:22:18;;;;;;;;;;;27.60;41.90;;;;;;1631834;71;1125;-60
2022/08/04 06:24:21;;;;;;;;;;;27.60;42.10;;;;;;1629697;71;683;-59
2022/08/04 06:26:23;;;;;;;;;;;27.60;42.30;;;;;;1631130;71;1548;-58
2022/08/04 06:28:26;;;;;;;;;;;27.60;42.40;;;;;;1634644;71;1940;-58
2022/08/04 06:30:28;;;;;;;;;;;27.60;42.30;;;;;;1634133;71;723;-59
2022/08/04 06:32:35;;;;;;;;;;;27.60;42.30;;;;;;1623576;71;1092;-56
2022/08/04 06:34:34;;;;;;;;;;;27.80;42.30;;;;;;1629817;71;1713;-59
2022/08/04 06:36:36;;;;;;;;;;;27.80;42.10;;;;;;1624664;72;708;-58
2022/08/04 06:38:38;;;;;;;;;;;27.80;42.10;;;;;;1633999;71;668;-58
2022/08/04 06:40:40;;;;;;;;;;;27.80;42.20;;;;;;1633033;71;1330;-58
2022/08/04 06:42:42;;;;;;;;;;;27.80;42.10;;;;;;1634612;71;1165;-59
2022/08/04 06:44:44;;;;;;;;;;;27.80;42.10;;;;;;1634797;71;732;-60
2022/08/04 06:46:46;;;;;;;;;;;27.70;42.20;;;;;;1639800;71;749;-59
2022/08/04 06:48:48;;;;;;;;;;;27.80;42.20;;;;;;1638797;71;1943;-59
2022/08/04 06:50:50;;;;;;;;;;;27.70;42.30;;;;;;1639256;72;812;-60
2022/08/04 06:52:52;;;;;;;;;;;27.70;42.20;;;;;;1637021;71;1137;-55
2022/08/04 06:54:54;;;;;;;;;;;27.80;42.30;;;;;;1637689;71;1628;-57
2022/08/04 06:56:56;;;;;;;;;;;27.90;42.20;;;;;;1639599;71;805;-59
2022/08/04 06:58:58;;;;;;;;;;;27.90;42.10;;;;;;1638040;71;698;-58
2022/08/04 07:01:00;;;;;;;;;;;27.90;42.20;;;;;;1637052;71;748;-56
2022/08/04 07:03:02;;;;;;;;;;;27.90;42.20;;;;;;1626587;71;1093;-58
2022/08/04 07:05:05;;;;;;;;;;;28.00;42.80;;;;;;1630719;71;651;-57
2022/08/04 07:07:07;;;;;;;;;;;28.10;43.10;;;;;;1643900;71;738;-58
2022/08/04 07:09:09;;;;;;;;;;;28.00;42.90;;;;;;1632657;71;1931;-59
2022/08/04 07:11:11;;;;;;;;;;;28.00;42.80;;;;;;1637413;71;732;-59
2022/08/04 07:13:13;;;;;;;;;;;28.00;42.90;;;;;;1631626;71;1149;-58
2022/08/04 07:15:15;;;;;;;;;;;28.10;42.50;;;;;;1628277;71;742;-56
2022/08/04 07:17:17;;;;;;;;;;;28.20;42.30;;;;;;1636096;71;724;-59
2022/08/04 07:19:19;;;;;;;;;;;28.20;42.40;;;;;;1608557;72;730;-59
2022/08/04 07:21:22;;;;;;;;;;;28.20;42.60;;;;;;1637807;71;672;-58
2022/08/04 07:23:24;;;;;;;;;;;28.20;42.60;;;;;;1638300;71;1526;-60
2022/08/04 07:25:26;;;;;;;;;;;28.20;42.60;;;;;;1637269;71;676;-56
2022/08/04 07:27:28;;;;;;;;;;;28.10;42.70;;;;;;1606206;71;224027;-62
2022/08/04 07:29:29;;;;;;;;;;;28.10;42.80;;;;;;1551939;74;1929;-62
2022/08/04 07:31:32;;;;;;;;;;;28.00;42.90;;;;;;1550127;74;645;-63
2022/08/04 07:33:34;;;;;;;;;;;28.00;43.00;;;;;;1552694;74;754;-62
2022/08/04 07:35:36;;;;;;;;;;;28.00;43.10;;;;;;1551457;74;633;-62
2022/08/04 07:37:38;;;;;;;;;;;27.90;42.60;;;;;;1549825;76;1706;-62
2022/08/04 07:39:40;;;;;;;;;;;28.00;43.30;;;;;;1535622;76;664;-63
2022/08/04 07:41:42;;;;;;;;;;;28.10;43.20;;;;;;1538647;76;637;-62
2022/08/04 07:43:44;;;;;;;;;;;28.10;43.10;;;;;;1551606;76;681;-61
2022/08/04 07:45:46;;;;;;;;;;;28.10;43.10;;;;;;1541837;76;629;-65
2022/08/04 07:47:48;;;;;;;;;;;28.10;43.20;;;;;;1554842;76;1951;-62
2022/08/04 07:49:50;;;;;;;;;;;28.20;43.30;;;;;;1542979;76;1468;-63
2022/08/04 07:51:51;;;;;;;;;;;28.20;43.10;;;;;;1528847;76;635;-64
2022/08/04 07:53:54;;;;;;;;;;;28.10;43.20;;;;;;1545166;75;777;-63
2022/08/04 07:55:55;;;;;;;;;;;28.10;43.30;;;;;;1545889;76;711;-64
2022/08/04 07:57:57;;;;;;;;;;;28.10;43.40;;;;;;1541008;76;1260;-62
2022/08/04 07:59:59;;;;;;;;;;;28.10;43.40;;;;;;1540202;76;720;-62
2022/08/04 08:02:01;;;;;;;;;;;28.00;43.50;;;;;;1541496;76;615;-62
2022/08/04 08:04:05;;;;;;;;;;;28.00;43.50;;;;;;1540817;76;1478;-63
2022/08/04 08:06:07;;;;;;;;;;;28.00;43.60;;;;;;1533193;76;696;-62
2022/08/04 08:08:10;;;;;;;;;;;28.00;43.50;;;;;;1510194;77;1953;-63
2022/08/04 08:10:13;;;;;;;;;;;28.10;43.40;;;;;;1535675;76;827;-63
2022/08/04 08:12:14;;;;;;;;;;;28.00;43.50;;;;;;1537073;76;739;-63
2022/08/04 08:14:16;;;;;;;;;;;28.00;43.50;;;;;;1540530;76;670;-62
2022/08/04 08:16:19;;;;;;;;;;;28.00;43.50;;;;;;1535215;76;684;-62
2022/08/04 08:18:21;;;;;;;;;;;28.00;43.60;;;;;;1534078;76;1516;-63
2022/08/04 08:20:23;;;;;;;;;;;28.10;43.50;;;;;;1534870;76;689;-63
2022/08/04 08:22:25;;;;;;;;;;;28.00;43.40;;;;;;1538525;76;712;-63
2022/08/04 08:24:29;;;;;;;;;;;28.10;43.40;;;;;;1531900;76;649;-63
2022/08/04 08:26:30;;;;;;;;;;;28.10;43.40;;;;;;1524544;76;1818;-63
2022/08/04 08:28:32;;;;;;;;;;;28.10;43.30;;;;;;1536987;76;1953;-62
2022/08/04 08:30:34;;;;;;;;;;;28.10;43.40;;;;;;1533659;76;666;-62
2022/08/04 08:32:36;;;;;;;;;;;28.10;43.30;;;;;;1525979;76;1507;-62
2022/08/04 08:34:38;;;;;;;;;;;28.00;43.30;;;;;;1538250;76;676;-63
2022/08/04 08:36:47;;;;;;;;;;;28.10;43.30;;;;;;1530674;76;578;-63
2022/08/04 08:38:51;;;;;;;;;;;28.10;43.30;;;;;;1529596;76;1712;-64
2022/08/04 08:40:57;;;;;;;;;;;28.00;43.30;;;;;;1539799;76;1700;-63
2022/08/04 08:43:10;;;;;;;;;;;28.10;43.30;;;;;;1541732;76;687;-64
2022/08/04 08:45:19;;;;;;;;;;;28.10;43.20;;;;;;1491531;77;1639;-64
2022/08/04 08:47:26;;;;;;;;;;;28.10;43.30;;;;;;1531769;75;1623;-63
2022/08/04 08:49:32;;;;;;;;;;;28.00;43.20;;;;;;1532561;76;1898;-63
2022/08/04 08:51:42;;;;;;;;;;;28.00;43.30;;;;;;1530635;76;1643;-62
2022/08/04 08:54:02;;;;;;;;;;;28.00;43.30;;;;;;1536511;76;1781;-63
2022/08/04 08:56:11;;;;;;;;;;;28.00;43.30;;;;;;1534090;76;628;-64
2022/08/04 08:58:31;;;;;;;;;;;28.00;43.30;;;;;;1535392;76;1130;-64
2022/08/04 09:00:35;;;;;;;;;;;28.00;43.30;;;;;;1537391;76;1480;-63
2022/08/04 09:02:47;;;;;;;;;;;28.00;43.30;;;;;;1528042;76;649;-63
2022/08/04 09:05:09;;;;;;;;;;;28.00;43.20;;;;;;1537986;76;685;-62
2022/08/04 09:07:29;;;;;;;;;;;28.00;43.20;;;;;;1534123;76;1480;-64
2022/08/04 09:09:33;;;;;;;;;;;28.00;43.10;;;;;;1539583;76;1906;-63
2022/08/04 09:11:39;;;;;;;;;;;28.00;43.10;;;;;;1530160;76;689;-62
2022/08/04 09:13:55;;;;;;;;;;;28.00;43.10;;;;;;1531181;76;705;-61
2022/08/04 09:15:58;;;;;;;;;;;28.00;43.10;;;;;;1541173;76;1665;-64
2022/08/04 09:18:11;;;;;;;;;;;28.00;43.00;;;;;;1526837;76;1109;-64
2022/08/04 09:20:15;;;;;;;;;;;28.10;42.90;;;;;;1540178;76;1829;-67
2022/08/04 09:22:22;;;;;;;;;;;28.20;42.80;;;;;;1539425;76;1491;-66
2022/08/04 09:24:31;;;;;;;;;;;28.20;42.80;;;;;;1532543;76;1797;-66
2022/08/04 09:26:37;;;;;;;;;;;28.20;42.70;;;;;;1528564;76;2177;-65
2022/08/04 09:28:57;;;;;;;;;;;28.20;42.60;;;;;;1539566;76;1953;-65
2022/08/04 09:31:16;;;;;;;;;;;28.20;42.70;;;;;;1530061;76;681;-65
2022/08/04 09:33:20;;;;;;;;;;;28.10;42.80;;;;;;1531187;76;697;-66
2022/08/04 09:35:35;;;;;;;;;;;28.10;42.80;;;;;;1525044;76;1918;-66
2022/08/04 09:37:47;;;;;;;;;;;28.10;42.80;;;;;;1533507;76;1157;-66
2022/08/04 09:39:51;;;;;;;;;;;28.20;42.60;;;;;;1524581;76;1059;-65
2022/08/04 09:41:55;;;;;;;;;;;28.30;42.60;;;;;;1526491;76;1666;-65
2022/08/04 09:44:11;;;;;;;;;;;28.20;42.50;;;;;;1531629;76;1397;-67
2022/08/04 09:46:17;;;;;;;;;;;28.20;42.40;;;;;;1533309;76;675;-65
2022/08/04 09:48:37;;;;;;;;;;;28.20;42.40;;;;;;1535676;76;1169;-66
2022/08/04 09:50:40;;;;;;;;;;;28.20;42.50;;;;;;1536703;76;643;-65
2022/08/04 09:52:46;;;;;;;;;;;28.20;42.40;;;;;;1526455;76;738;-65
2022/08/04 09:54:55;;;;;;;;;;;28.20;42.30;;;;;;1536511;76;714;-66
2022/08/04 09:57:02;;;;;;;;;;;28.20;42.30;;;;;;1528502;76;1472;-66
2022/08/04 09:59:22;;;;;;;;;;;28.20;42.20;;;;;;1525672;76;1362;-65
2022/08/04 10:01:24;;;;;;;;;;;28.20;42.20;;;;;;1543084;76;594;-68
2022/08/04 10:03:30;;;;;;;;;;;28.20;42.30;;;;;;1543931;76;718;-67
2022/08/04 10:05:34;;;;;;;;;;;28.30;42.30;;;;;;1541582;76;1860;-67
2022/08/04 10:07:38;;;;;;;;;;;28.20;42.30;;;;;;1549245;76;1736;-66
2022/08/04 10:09:43;;;;;;;;;;;28.20;42.30;;;;;;1544266;76;1936;-66
2022/08/04 10:11:53;;;;;;;;;;;28.20;42.50;;;;;;1533160;76;1594;-66
2022/08/04 10:14:00;;;;;;;;;;;28.10;42.50;;;;;;1527798;76;679;-65
2022/08/04 10:16:07;;;;;;;;;;;28.10;42.60;;;;;;1542024;76;2412;-67
2022/08/04 10:18:13;;;;;;;;;;;28.10;42.70;;;;;;1526356;76;1533;-66
2022/08/04 10:20:34;;;;;;;;;;;28.00;42.70;;;;;;1543531;76;2034;-66
2022/08/04 10:22:37;;;;;;;;;;;28.00;42.80;;;;;;1545554;76;1790;-66
2022/08/04 10:24:47;;;;;;;;;;;28.00;42.80;;;;;;1547044;75;1544;-66
2022/08/04 10:26:50;;;;;;;;;;;28.00;42.90;;;;;;1544833;76;1147;-66
2022/08/04 10:28:57;;;;;;;;;;;28.00;42.90;;;;;;1541181;76;1910;-65
2022/08/04 10:31:00;;;;;;;;;;;28.10;43.00;;;;;;1528099;76;629;-66
2022/08/04 10:33:20;;;;;;;;;;;28.00;43.00;;;;;;1537179;76;680;-64
2022/08/04 10:35:22;;;;;;;;;;;28.00;43.10;;;;;;1534435;76;754;-66
2022/08/04 10:37:26;;;;;;;;;;;28.00;43.10;;;;;;1530141;76;1161;-67
2022/08/04 10:39:29;;;;;;;;;;;28.00;43.10;;;;;;1537307;76;1944;-65
2022/08/04 10:41:33;;;;;;;;;;;28.00;43.10;;;;;;1546568;76;1719;-66
2022/08/04 10:43:37;;;;;;;;;;;28.00;43.10;;;;;;1541326;76;685;-67
2022/08/04 10:45:49;;;;;;;;;;;28.00;43.10;;;;;;1539078;76;666;-66
2022/08/04 10:47:52;;;;;;;;;;;28.00;43.10;;;;;;1524882;76;1223;-66
2022/08/04 10:49:55;;;;;;;;;;;28.00;43.10;;;;;;1536420;76;1931;-65
2022/08/04 10:52:07;;;;;;;;;;;28.00;43.10;;;;;;1538838;76;697;-66
2022/08/04 10:54:11;;;;;;;;;;;28.00;43.10;;;;;;1532411;76;1611;-65
2022/08/04 10:56:17;;;;;;;;;;;28.00;43.10;;;;;;1537479;76;1399;-63
2022/08/04 10:58:20;;;;;;;;;;;28.10;43.10;;;;;;1534023;76;1142;-63
2022/08/04 11:00:23;;;;;;;;;;;28.00;43.10;;;;;;1532493;76;718;-62
2022/08/04 11:02:33;;;;;;;;;;;28.00;43.10;;;;;;1528481;76;1710;-64
2022/08/04 11:04:36;;;;;;;;;;;28.10;43.20;;;;;;1550590;76;829;-63
2022/08/04 11:06:38;;;;;;;;;;;28.10;43.20;;;;;;1529710;76;1123;-64
2022/08/04 11:08:45;;;;;;;;;;;28.10;43.20;;;;;;1537427;76;1690;-64
2022/08/04 11:10:48;;;;;;;;;;;28.10;43.20;;;;;;1532577;76;1978;-63
2022/08/04 11:12:52;;;;;;;;;;;28.10;43.30;;;;;;1535550;76;766;-64
2022/08/04 11:14:55;;;;;;;;;;;28.10;43.30;;;;;;1532927;76;685;-63
2022/08/04 11:16:59;;;;;;;;;;;28.10;43.30;;;;;;1531473;76;1147;-64
2022/08/04 11:19:12;;;;;;;;;;;28.10;43.30;;;;;;1540963;76;1932;-65
2022/08/04 11:21:20;;;;;;;;;;;28.20;43.40;;;;;;1538529;76;1471;-65
2022/08/04 11:23:23;;;;;;;;;;;28.20;43.30;;;;;;1532644;76;542;-65
2022/08/04 11:25:27;;;;;;;;;;;28.20;43.30;;;;;;1533065;76;767;-66
2022/08/04 11:27:31;;;;;;;;;;;28.20;43.30;;;;;;1532167;76;1145;-67
2022/08/04 11:29:41;;;;;;;;;;;28.20;43.40;;;;;;1531603;76;1933;-67
2022/08/04 11:31:43;;;;;;;;;;;28.20;43.50;;;;;;1545604;76;628;-67
2022/08/04 11:33:46;;;;;;;;;;;28.20;43.50;;;;;;1542936;76;929;-66
2022/08/04 11:36:08;;;;;;;;;;;28.30;43.60;;;;;;1541016;76;1391;-66
2022/08/04 11:38:12;;;;;;;;;;;28.30;43.50;;;;;;1536385;76;1256;-65
2022/08/04 11:40:25;;;;;;;;;;;28.40;43.50;;;;;;1537316;76;755;-65
2022/08/04 11:42:27;;;;;;;;;;;28.30;43.50;;;;;;1546416;76;1000;-69
2022/08/04 11:44:33;;;;;;;;;;;28.20;43.50;;;;;;1539663;76;652;-67
2022/08/04 11:46:42;;;;;;;;;;;28.20;43.50;;;;;;1508201;77;1068;-67
2022/08/04 11:48:49;;;;;;;;;;;28.20;43.50;;;;;;1534013;76;1688;-67
2022/08/04 11:50:52;;;;;;;;;;;28.30;43.80;;;;;;1526564;76;1928;-67
2022/08/04 11:52:55;;;;;;;;;;;28.30;43.80;;;;;;1527498;76;726;-67
2022/08/04 11:54:57;;;;;;;;;;;28.20;43.70;;;;;;1547097;76;669;-66
2022/08/04 11:56:59;;;;;;;;;;;28.20;43.70;;;;;;1549367;76;1080;-67
2022/08/04 11:59:01;;;;;;;;;;;28.20;43.80;;;;;;1545259;76;676;-67
2022/08/04 12:01:10;;;;;;;;;;;28.10;43.80;;;;;;1526639;76;661;-67
2022/08/04 12:03:26;;;;;;;;;;;28.20;43.90;;;;;;1539152;76;1460;-67
2022/08/04 12:05:30;;;;;;;;;;;28.20;43.90;;;;;;1532050;76;1935;-66
2022/08/04 12:07:39;;;;;;;;;;;28.10;43.90;;;;;;1545017;76;1108;-67
2022/08/04 12:09:58;;;;;;;;;;;28.10;43.90;;;;;;1545893;76;1936;-67
2022/08/04 12:12:02;;;;;;;;;;;28.10;43.90;;;;;;1536899;76;1880;-67
2022/08/04 12:14:11;;;;;;;;;;;28.10;44.00;;;;;;1540449;76;558;-66
2022/08/04 12:16:17;;;;;;;;;;;28.10;43.90;;;;;;1544746;76;1882;-66
2022/08/04 12:18:20;;;;;;;;;;;28.10;44.00;;;;;;1531689;76;1484;-66
2022/08/04 12:20:22;;;;;;;;;;;28.10;44.00;;;;;;1532578;76;631;-67
2022/08/04 12:22:25;;;;;;;;;;;28.10;44.00;;;;;;1540139;76;704;-69
2022/08/04 12:24:31;;;;;;;;;;;28.10;44.00;;;;;;1528179;76;732;-71
2022/08/04 12:26:38;;;;;;;;;;;28.00;44.10;;;;;;1530673;76;652;-71
2022/08/04 12:28:40;;;;;;;;;;;28.10;44.00;;;;;;1537563;76;1085;-71
2022/08/04 12:30:46;;;;;;;;;;;28.10;44.00;;;;;;1524572;76;1938;-70
2022/08/04 12:32:50;;;;;;;;;;;28.10;44.00;;;;;;1535241;76;1739;-70